N525WG EBCI-LFPB
Flight info
| Callsign | N525WG |
|---|---|
| Flight time | 0h 49m |
| Altitude | 18000 |
| Route | DCT LESDO UN872 KIHVI DCT |
| Aircraft | TBM9/L-SDFGRWY/S |
Departure
| Time | 2026-05-08 20:14 |
|---|---|
| Airport | Brussels South Charleroi Airport (EBCI) |
Arrival
| Time | 2026-05-08 21:04 |
|---|---|
| Airport | Paris-Le Bourget International Airport (LFPB) |
| Time | Latitude | Longitude | Altitude | Speed | Heading |
|---|---|---|---|---|---|
| 2026-05-08 19:46 | 50.45956 | 4.45791 | 588 ft | 0 kts | 66° |
| 2026-05-08 20:08 | 50.45965 | 4.45817 | 587 ft | 5 kts | 36° |
| 2026-05-08 20:08 | 50.46001 | 4.45801 | 587 ft | 6 kts | 334° |
| 2026-05-08 20:09 | 50.46009 | 4.45771 | 587 ft | 3 kts | 246° |
| 2026-05-08 20:09 | 50.45998 | 4.45734 | 588 ft | 4 kts | 243° |
| 2026-05-08 20:09 | 50.45985 | 4.45694 | 588 ft | 4 kts | 242° |
| 2026-05-08 20:09 | 50.45973 | 4.45651 | 589 ft | 5 kts | 248° |
| 2026-05-08 20:10 | 50.45955 | 4.45589 | 589 ft | 7 kts | 244° |
| 2026-05-08 20:10 | 50.45944 | 4.45547 | 590 ft | 4 kts | 257° |
| 2026-05-08 20:10 | 50.45952 | 4.45513 | 590 ft | 4 kts | 347° |
| 2026-05-08 20:10 | 50.45954 | 4.45512 | 590 ft | 0 kts | 346° |
| 2026-05-08 20:12 | 50.45958 | 4.45510 | 590 ft | 3 kts | 342° |
| 2026-05-08 20:12 | 50.45993 | 4.45489 | 590 ft | 6 kts | 336° |
| 2026-05-08 20:13 | 50.46038 | 4.45479 | 590 ft | 7 kts | 28° |
| 2026-05-08 20:13 | 50.46056 | 4.45523 | 590 ft | 0 kts | 65° |
| 2026-05-08 20:13 | 50.46076 | 4.45590 | 589 ft | 29 kts | 66° |
| 2026-05-08 20:14 | 50.46251 | 4.46190 | 581 ft | 92 kts | 63° |
| 2026-05-08 20:14 | 50.46556 | 4.47225 | 910 ft | 110 kts | 65° |
| 2026-05-08 20:14 | 50.46869 | 4.48389 | 1374 ft | 123 kts | 67° |
| 2026-05-08 20:14 | 50.47353 | 4.49500 | 1995 ft | 122 kts | 36° |
| 2026-05-08 20:15 | 50.48199 | 4.49529 | 2518 ft | 139 kts | 330° |
| 2026-05-08 20:15 | 50.48601 | 4.48206 | 3068 ft | 144 kts | 263° |
| 2026-05-08 20:15 | 50.48133 | 4.46890 | 3586 ft | 143 kts | 219° |
| 2026-05-08 20:15 | 50.47286 | 4.46015 | 4054 ft | 146 kts | 214° |
| 2026-05-08 20:16 | 50.46650 | 4.44775 | 4594 ft | 149 kts | 240° |
| 2026-05-08 20:16 | 50.46102 | 4.43412 | 5189 ft | 145 kts | 231° |
| 2026-05-08 20:16 | 50.45399 | 4.42309 | 5712 ft | 147 kts | 220° |
| 2026-05-08 20:16 | 50.44659 | 4.41076 | 6027 ft | 163 kts | 231° |
| 2026-05-08 20:17 | 50.43907 | 4.39657 | 6406 ft | 172 kts | 229° |
| 2026-05-08 20:17 | 50.43117 | 4.38197 | 6804 ft | 177 kts | 230° |
| 2026-05-08 20:17 | 50.42301 | 4.36798 | 7342 ft | 173 kts | 226° |
| 2026-05-08 20:17 | 50.41465 | 4.35424 | 7820 ft | 174 kts | 227° |
| 2026-05-08 20:18 | 50.40649 | 4.34012 | 8300 ft | 175 kts | 228° |
| 2026-05-08 20:18 | 50.39842 | 4.32602 | 8778 ft | 176 kts | 228° |
| 2026-05-08 20:18 | 50.39019 | 4.31167 | 9265 ft | 177 kts | 228° |
| 2026-05-08 20:18 | 50.38191 | 4.29725 | 9762 ft | 178 kts | 228° |
| 2026-05-08 20:19 | 50.37358 | 4.28277 | 10258 ft | 179 kts | 228° |
| 2026-05-08 20:19 | 50.36518 | 4.26818 | 10734 ft | 181 kts | 228° |
| 2026-05-08 20:19 | 50.35669 | 4.25343 | 11250 ft | 183 kts | 228° |
| 2026-05-08 20:19 | 50.34814 | 4.23858 | 11758 ft | 185 kts | 227° |
| 2026-05-08 20:20 | 50.33959 | 4.22372 | 12268 ft | 186 kts | 227° |
| 2026-05-08 20:20 | 50.33085 | 4.20856 | 12791 ft | 188 kts | 227° |
| 2026-05-08 20:20 | 50.32205 | 4.19330 | 13311 ft | 190 kts | 227° |
| 2026-05-08 20:20 | 50.31311 | 4.17781 | 13834 ft | 192 kts | 227° |
| 2026-05-08 20:21 | 50.30411 | 4.16221 | 14299 ft | 194 kts | 227° |
| 2026-05-08 20:21 | 50.29503 | 4.14649 | 14774 ft | 195 kts | 227° |
| 2026-05-08 20:21 | 50.28589 | 4.13069 | 15245 ft | 197 kts | 227° |
| 2026-05-08 20:21 | 50.27665 | 4.11471 | 15725 ft | 198 kts | 227° |
| 2026-05-08 20:22 | 50.26748 | 4.09887 | 16198 ft | 200 kts | 227° |
| 2026-05-08 20:22 | 50.25812 | 4.08272 | 16682 ft | 201 kts | 227° |
| 2026-05-08 20:22 | 50.24867 | 4.06641 | 17167 ft | 202 kts | 228° |
| 2026-05-08 20:22 | 50.24240 | 4.05559 | 17489 ft | 204 kts | 228° |
| 2026-05-08 20:23 | 50.22956 | 4.03347 | 18084 ft | 209 kts | 228° |
| 2026-05-08 20:23 | 50.21930 | 4.01570 | 18102 ft | 231 kts | 229° |
| 2026-05-08 20:23 | 50.20811 | 3.99631 | 18107 ft | 247 kts | 228° |
| 2026-05-08 20:23 | 50.19627 | 3.97591 | 18108 ft | 259 kts | 228° |
| 2026-05-08 20:24 | 50.18817 | 3.96197 | 18109 ft | 265 kts | 228° |
| 2026-05-08 20:24 | 50.17615 | 3.94134 | 18104 ft | 271 kts | 228° |
| 2026-05-08 20:24 | 50.16334 | 3.91935 | 18110 ft | 276 kts | 228° |
| 2026-05-08 20:24 | 50.14607 | 3.88975 | 18107 ft | 280 kts | 228° |
| 2026-05-08 20:25 | 50.13721 | 3.87457 | 18108 ft | 281 kts | 228° |
| 2026-05-08 20:25 | 50.12286 | 3.85398 | 18080 ft | 282 kts | 212° |
| 2026-05-08 20:25 | 50.10460 | 3.84426 | 18081 ft | 283 kts | 188° |
| 2026-05-08 20:25 | 50.08487 | 3.84327 | 18089 ft | 284 kts | 180° |
| 2026-05-08 20:26 | 50.06509 | 3.84228 | 18094 ft | 284 kts | 185° |
| 2026-05-08 20:26 | 50.04541 | 3.83846 | 18101 ft | 284 kts | 189° |
| 2026-05-08 20:26 | 50.02587 | 3.83364 | 18099 ft | 285 kts | 189° |
| 2026-05-08 20:26 | 50.00623 | 3.82956 | 18090 ft | 285 kts | 188° |
| 2026-05-08 20:27 | 49.98655 | 3.82582 | 18089 ft | 285 kts | 188° |
| 2026-05-08 20:27 | 49.96685 | 3.82189 | 18091 ft | 285 kts | 188° |
| 2026-05-08 20:27 | 49.94720 | 3.81786 | 18089 ft | 285 kts | 188° |
| 2026-05-08 20:27 | 49.92750 | 3.81387 | 18088 ft | 286 kts | 188° |
| 2026-05-08 20:28 | 49.90776 | 3.80990 | 18084 ft | 286 kts | 188° |
| 2026-05-08 20:28 | 49.88805 | 3.80594 | 18086 ft | 286 kts | 188° |
| 2026-05-08 20:28 | 49.86833 | 3.80196 | 18083 ft | 286 kts | 188° |
| 2026-05-08 20:28 | 49.84887 | 3.79804 | 18079 ft | 286 kts | 188° |
| 2026-05-08 20:29 | 49.82913 | 3.79408 | 18076 ft | 286 kts | 188° |
| 2026-05-08 20:29 | 49.80942 | 3.79013 | 18078 ft | 286 kts | 188° |
| 2026-05-08 20:29 | 49.78962 | 3.78614 | 18076 ft | 286 kts | 188° |
| 2026-05-08 20:29 | 49.76992 | 3.78219 | 18081 ft | 286 kts | 188° |
| 2026-05-08 20:30 | 49.75018 | 3.77823 | 17990 ft | 288 kts | 188° |
| 2026-05-08 20:30 | 49.72996 | 3.77411 | 17613 ft | 297 kts | 188° |
| 2026-05-08 20:30 | 49.70919 | 3.76988 | 17245 ft | 303 kts | 188° |
| 2026-05-08 20:30 | 49.68823 | 3.76569 | 16879 ft | 305 kts | 188° |
| 2026-05-08 20:31 | 49.66698 | 3.76145 | 16391 ft | 309 kts | 188° |
| 2026-05-08 20:31 | 49.64560 | 3.75715 | 15902 ft | 310 kts | 188° |
| 2026-05-08 20:31 | 49.62433 | 3.75297 | 15531 ft | 307 kts | 188° |
| 2026-05-08 20:31 | 49.60314 | 3.74881 | 15156 ft | 305 kts | 188° |
| 2026-05-08 20:32 | 49.58239 | 3.74467 | 14788 ft | 304 kts | 188° |
| 2026-05-08 20:32 | 49.56148 | 3.74050 | 14426 ft | 302 kts | 188° |
| 2026-05-08 20:32 | 49.54065 | 3.73636 | 14063 ft | 301 kts | 188° |
| 2026-05-08 20:32 | 49.51995 | 3.73226 | 13679 ft | 299 kts | 189° |
| 2026-05-08 20:33 | 49.49933 | 3.72817 | 13277 ft | 298 kts | 189° |
| 2026-05-08 20:33 | 49.47884 | 3.72412 | 12880 ft | 296 kts | 189° |
| 2026-05-08 20:33 | 49.45843 | 3.72007 | 12486 ft | 295 kts | 189° |
| 2026-05-08 20:33 | 49.43813 | 3.71606 | 12094 ft | 293 kts | 189° |
| 2026-05-08 20:34 | 49.41796 | 3.71207 | 11716 ft | 291 kts | 189° |
| 2026-05-08 20:34 | 49.39790 | 3.70811 | 11335 ft | 290 kts | 189° |
| 2026-05-08 20:34 | 49.35872 | 3.70049 | 11075 ft | 275 kts | 189° |
| 2026-05-08 20:35 | 49.33989 | 3.69688 | 11072 ft | 269 kts | 189° |
| 2026-05-08 20:35 | 49.32143 | 3.69323 | 11069 ft | 266 kts | 190° |
| 2026-05-08 20:35 | 49.30312 | 3.68957 | 11066 ft | 264 kts | 190° |
| 2026-05-08 20:35 | 49.28516 | 3.68600 | 11068 ft | 263 kts | 190° |
| 2026-05-08 20:36 | 49.26704 | 3.68245 | 11063 ft | 262 kts | 190° |
| 2026-05-08 20:36 | 49.24955 | 3.67547 | 11084 ft | 259 kts | 210° |
| 2026-05-08 20:36 | 49.23639 | 3.65725 | 11089 ft | 257 kts | 237° |
| 2026-05-08 20:36 | 49.23039 | 3.63172 | 11086 ft | 257 kts | 260° |
| 2026-05-08 20:37 | 49.22766 | 3.60468 | 11084 ft | 257 kts | 261° |
| 2026-05-08 20:37 | 49.22472 | 3.57765 | 11085 ft | 257 kts | 260° |
| 2026-05-08 20:37 | 49.22165 | 3.55070 | 11084 ft | 257 kts | 260° |
| 2026-05-08 20:37 | 49.21858 | 3.52368 | 11085 ft | 258 kts | 260° |
| 2026-05-08 20:38 | 49.21552 | 3.49671 | 11078 ft | 258 kts | 260° |
| 2026-05-08 20:38 | 49.21245 | 3.46970 | 11082 ft | 258 kts | 260° |
| 2026-05-08 20:38 | 49.20935 | 3.44265 | 11078 ft | 258 kts | 260° |
| 2026-05-08 20:38 | 49.20626 | 3.41562 | 11081 ft | 258 kts | 260° |
| 2026-05-08 20:39 | 49.20318 | 3.38880 | 11079 ft | 258 kts | 260° |
| 2026-05-08 20:39 | 49.20007 | 3.36168 | 11076 ft | 258 kts | 260° |
| 2026-05-08 20:39 | 49.19695 | 3.33461 | 11074 ft | 258 kts | 260° |
| 2026-05-08 20:39 | 49.19383 | 3.30758 | 11074 ft | 258 kts | 260° |
| 2026-05-08 20:40 | 49.19071 | 3.28056 | 11073 ft | 258 kts | 260° |
| 2026-05-08 20:40 | 49.18757 | 3.25348 | 11071 ft | 258 kts | 260° |
| 2026-05-08 20:40 | 49.18446 | 3.22679 | 11073 ft | 258 kts | 259° |
| 2026-05-08 20:40 | 49.18131 | 3.19974 | 11068 ft | 258 kts | 260° |
| 2026-05-08 20:41 | 49.17816 | 3.17273 | 11067 ft | 258 kts | 260° |
| 2026-05-08 20:41 | 49.17499 | 3.14562 | 11069 ft | 258 kts | 260° |
| 2026-05-08 20:41 | 49.17183 | 3.11859 | 11071 ft | 258 kts | 260° |
| 2026-05-08 20:41 | 49.16864 | 3.09153 | 11070 ft | 258 kts | 259° |
| 2026-05-08 20:42 | 49.16547 | 3.06450 | 11069 ft | 258 kts | 260° |
| 2026-05-08 20:42 | 49.16227 | 3.03744 | 11064 ft | 258 kts | 259° |
| 2026-05-08 20:42 | 49.15908 | 3.01044 | 11065 ft | 258 kts | 260° |
| 2026-05-08 20:42 | 49.15588 | 2.98336 | 11071 ft | 258 kts | 259° |
| 2026-05-08 20:43 | 49.15376 | 2.96550 | 11067 ft | 258 kts | 259° |
| 2026-05-08 20:43 | 49.15306 | 2.95959 | 11065 ft | 259 kts | 259° |
| 2026-05-08 20:43 | 49.15038 | 2.93699 | 11072 ft | 258 kts | 259° |
| 2026-05-08 20:43 | 49.14762 | 2.91390 | 11071 ft | 258 kts | 259° |
| 2026-05-08 20:44 | 49.14440 | 2.88688 | 11065 ft | 259 kts | 259° |
| 2026-05-08 20:44 | 49.14116 | 2.85981 | 11071 ft | 259 kts | 259° |
| 2026-05-08 20:44 | 49.13791 | 2.83265 | 11066 ft | 259 kts | 259° |
| 2026-05-08 20:44 | 49.13467 | 2.80564 | 11070 ft | 259 kts | 259° |
| 2026-05-08 20:45 | 49.13140 | 2.77857 | 11070 ft | 259 kts | 259° |
| 2026-05-08 20:45 | 49.12925 | 2.76069 | 11072 ft | 259 kts | 259° |
| 2026-05-08 20:45 | 49.12486 | 2.72442 | 11069 ft | 259 kts | 259° |
| 2026-05-08 20:45 | 49.12159 | 2.69735 | 11070 ft | 260 kts | 259° |
| 2026-05-08 20:46 | 49.11834 | 2.67057 | 11066 ft | 260 kts | 259° |
| 2026-05-08 20:46 | 49.11504 | 2.64337 | 11067 ft | 260 kts | 260° |
| 2026-05-08 20:46 | 49.11173 | 2.61623 | 11065 ft | 260 kts | 259° |
| 2026-05-08 20:46 | 49.10855 | 2.58901 | 11030 ft | 262 kts | 263° |
| 2026-05-08 20:47 | 49.10802 | 2.56057 | 10624 ft | 274 kts | 270° |
| 2026-05-08 20:47 | 49.10777 | 2.53122 | 10213 ft | 280 kts | 269° |
| 2026-05-08 20:47 | 49.10707 | 2.50130 | 9785 ft | 283 kts | 268° |
| 2026-05-08 20:47 | 49.10574 | 2.47151 | 9327 ft | 283 kts | 261° |
| 2026-05-08 20:48 | 49.10111 | 2.44289 | 8869 ft | 270 kts | 254° |
| 2026-05-08 20:48 | 49.09580 | 2.41655 | 8413 ft | 252 kts | 253° |
| 2026-05-08 20:48 | 49.09055 | 2.39161 | 7975 ft | 243 kts | 252° |
| 2026-05-08 20:48 | 49.08544 | 2.36727 | 7538 ft | 239 kts | 252° |
| 2026-05-08 20:49 | 49.08045 | 2.34321 | 7113 ft | 236 kts | 252° |
| 2026-05-08 20:49 | 49.07555 | 2.31933 | 6693 ft | 235 kts | 252° |
| 2026-05-08 20:49 | 49.07073 | 2.29559 | 6281 ft | 234 kts | 252° |
| 2026-05-08 20:49 | 49.06596 | 2.27190 | 5867 ft | 233 kts | 252° |
| 2026-05-08 20:50 | 49.06123 | 2.24821 | 5455 ft | 233 kts | 252° |
| 2026-05-08 20:50 | 49.05655 | 2.22462 | 5057 ft | 233 kts | 253° |
| 2026-05-08 20:50 | 49.05196 | 2.20165 | 5010 ft | 220 kts | 252° |
| 2026-05-08 20:50 | 49.04761 | 2.18002 | 5003 ft | 213 kts | 252° |
| 2026-05-08 20:51 | 49.04330 | 2.15858 | 5002 ft | 209 kts | 252° |
| 2026-05-08 20:51 | 49.03906 | 2.13746 | 4999 ft | 208 kts | 252° |
| 2026-05-08 20:51 | 49.03482 | 2.11650 | 4998 ft | 206 kts | 250° |
| 2026-05-08 20:51 | 49.02675 | 2.09904 | 4981 ft | 203 kts | 219° |
| 2026-05-08 20:52 | 49.01499 | 2.08626 | 4617 ft | 210 kts | 213° |
| 2026-05-08 20:52 | 49.00273 | 2.07389 | 4229 ft | 213 kts | 212° |
| 2026-05-08 20:52 | 48.99045 | 2.06151 | 3894 ft | 203 kts | 212° |
| 2026-05-08 20:52 | 48.97910 | 2.05009 | 3587 ft | 191 kts | 212° |
| 2026-05-08 20:53 | 48.96814 | 2.03902 | 3278 ft | 187 kts | 212° |
| 2026-05-08 20:53 | 48.95701 | 2.02994 | 3006 ft | 180 kts | 191° |
| 2026-05-08 20:53 | 48.94527 | 2.03064 | 2996 ft | 163 kts | 167° |
| 2026-05-08 20:53 | 48.93432 | 2.03369 | 2999 ft | 157 kts | 167° |
| 2026-05-08 20:54 | 48.92369 | 2.03655 | 2997 ft | 153 kts | 167° |
| 2026-05-08 20:54 | 48.91322 | 2.03937 | 2995 ft | 152 kts | 167° |
| 2026-05-08 20:54 | 48.90294 | 2.04265 | 2988 ft | 149 kts | 155° |
| 2026-05-08 20:54 | 48.89639 | 2.05231 | 2996 ft | 143 kts | 110° |
| 2026-05-08 20:55 | 48.89454 | 2.06707 | 3003 ft | 142 kts | 98° |
| 2026-05-08 20:55 | 48.89322 | 2.08200 | 3004 ft | 143 kts | 97° |
| 2026-05-08 20:55 | 48.89199 | 2.09699 | 3006 ft | 142 kts | 97° |
| 2026-05-08 20:55 | 48.89080 | 2.11178 | 3007 ft | 143 kts | 97° |
| 2026-05-08 20:56 | 48.88960 | 2.12673 | 3006 ft | 143 kts | 97° |
| 2026-05-08 20:56 | 48.88842 | 2.14174 | 3000 ft | 143 kts | 97° |
| 2026-05-08 20:56 | 48.88839 | 2.15669 | 2994 ft | 143 kts | 72° |
| 2026-05-08 20:56 | 48.89428 | 2.16817 | 2997 ft | 135 kts | 50° |
| 2026-05-08 20:57 | 48.89878 | 2.18018 | 3002 ft | 130 kts | 66° |
| 2026-05-08 20:57 | 48.90259 | 2.19254 | 2995 ft | 128 kts | 69° |
| 2026-05-08 20:57 | 48.90611 | 2.20491 | 2998 ft | 127 kts | 69° |
| 2026-05-08 20:57 | 48.90954 | 2.21726 | 2992 ft | 126 kts | 69° |
| 2026-05-08 20:58 | 48.91295 | 2.22986 | 2895 ft | 133 kts | 70° |
| 2026-05-08 20:58 | 48.91649 | 2.24318 | 2723 ft | 139 kts | 69° |
| 2026-05-08 20:58 | 48.92014 | 2.25687 | 2533 ft | 143 kts | 70° |
| 2026-05-08 20:58 | 48.92371 | 2.27009 | 2342 ft | 127 kts | 69° |
| 2026-05-08 20:59 | 48.92683 | 2.28187 | 2179 ft | 113 kts | 70° |
| 2026-05-08 20:59 | 48.92964 | 2.29220 | 2035 ft | 98 kts | 70° |
| 2026-05-08 20:59 | 48.93197 | 2.30094 | 1925 ft | 82 kts | 68° |
| 2026-05-08 20:59 | 48.93416 | 2.30903 | 1815 ft | 83 kts | 69° |
| 2026-05-08 21:00 | 48.93635 | 2.31716 | 1705 ft | 82 kts | 69° |
| 2026-05-08 21:00 | 48.93852 | 2.32526 | 1583 ft | 82 kts | 69° |
| 2026-05-08 21:00 | 48.94063 | 2.33313 | 1477 ft | 81 kts | 69° |
| 2026-05-08 21:00 | 48.94272 | 2.34097 | 1367 ft | 80 kts | 69° |
| 2026-05-08 21:01 | 48.94478 | 2.34873 | 1269 ft | 79 kts | 68° |
| 2026-05-08 21:01 | 48.94686 | 2.35646 | 1151 ft | 79 kts | 68° |
| 2026-05-08 21:01 | 48.94899 | 2.36443 | 1041 ft | 83 kts | 69° |
| 2026-05-08 21:01 | 48.95104 | 2.37255 | 921 ft | 81 kts | 64° |
| 2026-05-08 21:02 | 48.95321 | 2.38053 | 814 ft | 84 kts | 66° |
| 2026-05-08 21:02 | 48.95542 | 2.38885 | 707 ft | 86 kts | 66° |
| 2026-05-08 21:02 | 48.95752 | 2.39705 | 585 ft | 80 kts | 65° |
| 2026-05-08 21:02 | 48.95969 | 2.40486 | 488 ft | 82 kts | 66° |
| 2026-05-08 21:03 | 48.96189 | 2.41305 | 365 ft | 85 kts | 66° |
| 2026-05-08 21:03 | 48.96415 | 2.42143 | 245 ft | 86 kts | 65° |
| 2026-05-08 21:03 | 48.96629 | 2.42946 | 148 ft | 72 kts | 64° |
| 2026-05-08 21:03 | 48.96798 | 2.43552 | 140 ft | 54 kts | 69° |
| 2026-05-08 21:04 | 48.96919 | 2.44009 | 142 ft | 30 kts | 68° |
| 2026-05-08 21:04 | 48.96940 | 2.44242 | 141 ft | 21 kts | 100° |
| 2026-05-08 21:04 | 48.96879 | 2.44371 | 142 ft | 12 kts | 147° |
| 2026-05-08 21:04 | 48.96806 | 2.44413 | 144 ft | 12 kts | 163° |
| 2026-05-08 21:05 | 48.96729 | 2.44449 | 145 ft | 12 kts | 162° |
| 2026-05-08 21:05 | 48.96662 | 2.44482 | 146 ft | 7 kts | 164° |
| 2026-05-08 21:05 | 48.96652 | 2.44486 | 146 ft | 0 kts | 164° |
| 2026-05-08 21:06 | 48.96639 | 2.44492 | 147 ft | 7 kts | 162° |
| 2026-05-08 21:06 | 48.96571 | 2.44525 | 148 ft | 11 kts | 165° |
| 2026-05-08 21:06 | 48.96493 | 2.44539 | 149 ft | 12 kts | 176° |
| 2026-05-08 21:07 | 48.96396 | 2.44539 | 148 ft | 15 kts | 193° |
| 2026-05-08 21:07 | 48.96300 | 2.44478 | 147 ft | 15 kts | 212° |
| 2026-05-08 21:07 | 48.96200 | 2.44403 | 147 ft | 17 kts | 202° |
| 2026-05-08 21:07 | 48.96094 | 2.44336 | 146 ft | 15 kts | 204° |
| 2026-05-08 21:08 | 48.96001 | 2.44271 | 146 ft | 15 kts | 206° |
| 2026-05-08 21:08 | 48.95901 | 2.44199 | 146 ft | 17 kts | 204° |
| 2026-05-08 21:08 | 48.95806 | 2.44134 | 146 ft | 12 kts | 200° |
| 2026-05-08 21:08 | 48.95748 | 2.44166 | 148 ft | 2 kts | 116° |
| 2026-05-08 21:09 | 48.95748 | 2.44165 | 148 ft | 0 kts | 105° |
| 2026-05-08 21:10 | 48.95750 | 2.44156 | 148 ft | 3 kts | 106° |
| 2026-05-08 21:10 | 48.95753 | 2.44174 | 150 ft | 7 kts | 102° |
| 2026-05-08 21:10 | 48.95734 | 2.44232 | 150 ft | 6 kts | 73° |
| 2026-05-08 21:10 | 48.95752 | 2.44251 | 150 ft | 5 kts | 24° |
| 2026-05-08 21:11 | 48.95754 | 2.44253 | 150 ft | 0 kts | 24° |